Santa Rosa, CA (95407)

3:19 PM PDT on September 30, 2014 (GMT -0700)
Santa Rosa Corporate Center | Change Station
CLOSE
Current Station
Personal Weather Station
Location: Santa Rosa, CA
Elevation: 122 ft
Nearby Weather Stations

Elev 122 ft 38.42 °N, 122.75 °W | Updated 4 minutes ago

Clear
Clear
80.9 °F
Feels Like 81 °F
N
5.0
Wind Variable Wind from SSW
Gusts 8.0 mph

Today
High -- | Low -- °F
--% Chance of Precip.
Yesterday
High -- | Low -- °F
Precip. -- in
7:05 AM 6:55 PM
Waxing Crescent, 40% visible
Pressure 29.83 in
Visibility 10.0 miles
Clouds Few 5000 ft
Heat Index 81 °F
Dew Point 59 °F
Humidity 48%
Rainfall 0.01 in
Snow Depth 0 in , 0 in , 0 in
UV 5 out of 12
Pollen 2.80 out of 12
Air Quality Not available.
Flu Activity Not available.
METAR KSTS 302153Z 00000KT 10SM FEW050 28/12 A2985 RMK AO2 SLP100 T02780117

More Conditions Fewer Conditions

Pressure 29.83 in
Visibility 10.0 miles
Clouds Few 5000 ft
Heat Index 81 °F
Dew Point 59 °F
Humidity 48%
Rainfall 0.01 in
Snow Depth 0 in , 0 in , 0 in
UV 5 out of 12
Pollen 2.80 out of 12
Air Quality Not available.
Flu Activity Not available.
METAR KSTS 302153Z 00000KT 10SM FEW050 28/12 A2985 RMK AO2 SLP100 T02780117

More Conditions Fewer Conditions

10-Day Weather Forecast

Almanac

Astronomy

Sep. 30, 2014 Rise Set
Actual Time 7:05 AM PDT 6:55 PM PDT
Civil Twilight 6:39 AM PDT 7:21 PM PDT
Nautical Twilight 6:08 AM PDT 7:52 PM PDT
Astronomical Twilight 5:37 AM PDT 8:23 PM PDT
Moon 1:15 PM PDT 11:34 PM PDT
Length of Visible Light 12h 42m
Length of Day
11h 49m
Tomorrow will be 2m 28s shorter.
Waxing Crescent, 40% of the Moon is Illuminated
Today
Waxing Crescent
Oct 1
First Quarter
Oct 8
Full
Oct 15
Last Quarter
Oct 23
New

Today's Extremes

State Highs State Lows

Community

WunderPhotos

Upload Photos

1,757,767 photos uploaded!

Nearby

Air Quality

  Air Quality AQ Index Pollutant
Tuesday Good
PM2.5
Wednesday Good
PM2.5
Thursday Moderate
PM2.5
Friday Moderate
PM2.5
Saturday Moderate
PM2.5
Sunday Moderate
PM2.5

Snow Depth

Station Depth Elevation
Rubicon #2 0 in 7500 ft
Adin Mountain 0 in 6200 ft
Summit Meadow 0 in 9122 ft
Monitor Pass 0 in 8350 ft
Leavitt Meadows 0 in 7200 ft

Earthquake Activity

City Distance Mag. Time & Date
South Dos Palos, California 160 miles 2.8 3:08 PM PDT
2014-09-30
South Dos Palos, California 160 miles 2.5 9:18 PM PDT
2014-09-29
American Canyon, California 28 miles 2.5 12:17 AM PDT
2014-09-29
South Dos Palos, California 160 miles 2.7 8:46 PM PDT
2014-09-28
Minimum magnitude displayed is 2.5.

Coastal Water Temperatures

Place Temperature
Point Reyes, CA 60.1 °F
Arena Cove, CA 55.9 °F
San Francisco, CA 64.9 °F
Richmond, CA 68.0 °F

Nearby Weather Stations